createdAt,value
2019-06-26T00:00:45.695Z,23.50
2019-06-26T00:03:33.951Z,23.50
2019-06-26T00:06:21.810Z,23.40
2019-06-26T00:09:10.074Z,23.40
2019-06-26T00:11:57.582Z,23.50
2019-06-26T00:14:45.049Z,23.40
2019-06-26T00:17:32.629Z,23.40
2019-06-26T00:20:20.831Z,23.50
2019-06-26T00:23:08.222Z,23.10
2019-06-26T00:25:55.715Z,23.20
2019-06-26T00:28:43.197Z,23.10
2019-06-26T00:31:30.629Z,23.10
2019-06-26T00:34:18.632Z,23.10
2019-06-26T00:37:05.993Z,23.10
2019-06-26T00:39:54.114Z,23.00
2019-06-26T00:42:42.113Z,22.90
2019-06-26T00:45:29.768Z,22.80
2019-06-26T00:48:17.007Z,22.80
2019-06-26T00:51:05.041Z,22.90
2019-06-26T00:53:52.483Z,22.80
2019-06-26T00:56:40.339Z,22.90
2019-06-26T00:59:28.162Z,22.80
2019-06-26T01:02:16.057Z,22.80
2019-06-26T01:05:05.608Z,22.80
2019-06-26T01:07:53.319Z,22.80
2019-06-26T01:10:40.910Z,22.80
2019-06-26T01:13:28.363Z,22.80
2019-06-26T01:16:16.070Z,22.70
2019-06-26T01:19:03.460Z,22.70
2019-06-26T01:21:50.713Z,22.60
2019-06-26T01:24:38.522Z,22.50
2019-06-26T01:27:25.471Z,22.60
2019-06-26T01:30:13.236Z,22.60
2019-06-26T01:33:00.129Z,22.50
2019-06-26T01:35:47.637Z,22.50
2019-06-26T01:38:34.846Z,22.40
2019-06-26T01:41:22.374Z,22.50
2019-06-26T01:44:14.982Z,22.50
2019-06-26T01:46:59.865Z,22.50
2019-06-26T01:49:47.367Z,22.50
2019-06-26T01:52:34.760Z,22.40
2019-06-26T01:55:22.840Z,22.40
2019-06-26T01:58:10.580Z,22.40
2019-06-26T02:00:58.375Z,22.30
2019-06-26T02:03:45.931Z,22.30
2019-06-26T02:06:34.059Z,22.10
2019-06-26T02:09:21.511Z,22.00
2019-06-26T02:12:08.952Z,22.00
2019-06-26T02:14:56.610Z,22.10
2019-06-26T02:17:44.869Z,22.10
2019-06-26T02:20:32.339Z,22.10
2019-06-26T02:23:19.763Z,22.00
2019-06-26T02:26:07.009Z,22.00
2019-06-26T02:28:54.472Z,21.90
2019-06-26T02:31:41.796Z,22.00
2019-06-26T02:34:29.064Z,21.90
2019-06-26T02:37:16.829Z,21.90
2019-06-26T02:40:06.937Z,22.00
2019-06-26T02:42:54.080Z,22.10
2019-06-26T02:45:41.750Z,21.90
2019-06-26T02:48:29.774Z,21.90
2019-06-26T02:51:17.709Z,22.00
2019-06-26T02:54:05.815Z,21.90
2019-06-26T02:56:52.743Z,21.70
2019-06-26T02:59:40.775Z,21.70
2019-06-26T03:02:28.374Z,21.60
2019-06-26T03:05:15.788Z,21.60
2019-06-26T03:08:03.598Z,21.60
2019-06-26T03:10:51.366Z,21.60
2019-06-26T03:13:39.134Z,21.70
2019-06-26T03:16:26.846Z,21.80
2019-06-26T03:19:14.464Z,21.80
2019-06-26T03:22:01.687Z,21.60
2019-06-26T03:24:49.604Z,21.50
2019-06-26T03:27:37.071Z,21.50
2019-06-26T03:30:25.196Z,21.40
2019-06-26T03:33:13.016Z,21.50
2019-06-26T03:36:00.383Z,21.60
2019-06-26T03:38:48.201Z,21.60
2019-06-26T03:41:36.116Z,21.50
2019-06-26T03:44:23.253Z,21.50
2019-06-26T03:47:10.677Z,21.50
2019-06-26T03:49:58.597Z,21.50
2019-06-26T03:52:46.582Z,21.60
2019-06-26T03:55:34.246Z,21.70
2019-06-26T03:58:21.755Z,21.70
2019-06-26T04:01:09.233Z,21.60
2019-06-26T04:03:57.579Z,21.60
2019-06-26T04:06:45.080Z,21.70
2019-06-26T04:09:32.753Z,21.90
2019-06-26T04:12:20.191Z,22.00
2019-06-26T04:15:08.205Z,22.00
2019-06-26T04:17:55.801Z,22.10
2019-06-26T04:20:43.197Z,22.10
2019-06-26T04:23:30.882Z,22.30
2019-06-26T04:26:18.095Z,22.30
2019-06-26T04:29:05.624Z,22.50
2019-06-26T04:31:53.308Z,22.60
2019-06-26T04:34:40.891Z,22.60
2019-06-26T04:37:28.446Z,22.70
2019-06-26T04:40:15.930Z,22.70
2019-06-26T04:43:03.269Z,22.70
2019-06-26T04:45:58.238Z,22.70
2019-06-26T04:48:40.376Z,22.60
2019-06-26T04:51:27.848Z,22.80
2019-06-26T04:54:15.441Z,23.00
2019-06-26T04:57:02.860Z,23.20
2019-06-26T04:59:50.374Z,23.40
2019-06-26T05:02:37.852Z,23.60
2019-06-26T05:05:38.614Z,23.70
2019-06-26T05:08:14.493Z,23.80
2019-06-26T05:11:01.872Z,23.90
2019-06-26T05:13:49.189Z,23.90
2019-06-26T05:16:37.217Z,23.90
2019-06-26T05:19:24.978Z,24.10
2019-06-26T05:22:12.858Z,24.10
2019-06-26T05:25:00.247Z,24.30
2019-06-26T05:27:48.070Z,24.20
2019-06-26T05:30:35.561Z,24.40
2019-06-26T05:33:22.987Z,24.60
2019-06-26T05:36:10.493Z,24.70
2019-06-26T05:38:57.889Z,24.80
2019-06-26T05:41:45.852Z,24.80
2019-06-26T05:44:33.208Z,24.70
2019-06-26T05:47:22.172Z,24.80
2019-06-26T05:50:11.001Z,25.00
2019-06-26T05:52:58.622Z,25.10
2019-06-26T05:55:46.439Z,25.20
2019-06-26T05:58:34.418Z,25.20
2019-06-26T06:01:22.022Z,25.40
2019-06-26T06:04:09.283Z,25.50
2019-06-26T06:06:56.829Z,25.70
2019-06-26T06:09:44.349Z,25.80
2019-06-26T06:12:32.012Z,25.90
2019-06-26T06:15:19.777Z,26.00
2019-06-26T06:18:07.516Z,26.10
2019-06-26T06:20:55.037Z,26.20
2019-06-26T06:23:42.860Z,26.20
2019-06-26T06:26:30.164Z,26.30
2019-06-26T06:29:17.756Z,26.30
2019-06-26T06:32:05.540Z,26.30
2019-06-26T06:34:53.146Z,26.50
2019-06-26T06:37:40.629Z,26.70
2019-06-26T06:40:28.555Z,26.80
2019-06-26T06:43:15.903Z,26.80
2019-06-26T06:46:03.952Z,27.00
2019-06-26T06:48:51.528Z,27.10
2019-06-26T06:51:39.304Z,27.00
2019-06-26T06:54:26.680Z,27.10
2019-06-26T06:57:14.187Z,27.20
2019-06-26T07:00:01.822Z,27.50
2019-06-26T07:02:49.363Z,27.50
2019-06-26T07:05:37.146Z,27.70
2019-06-26T07:08:24.757Z,27.80
2019-06-26T07:11:12.880Z,27.90
2019-06-26T07:14:00.377Z,28.10
2019-06-26T07:16:48.265Z,28.20
2019-06-26T07:19:35.956Z,28.30
2019-06-26T07:22:23.847Z,28.30
2019-06-26T07:25:12.426Z,28.50
2019-06-26T07:28:01.908Z,28.50
2019-06-26T07:30:49.464Z,28.60
2019-06-26T07:33:37.597Z,28.60
2019-06-26T07:36:25.422Z,28.60
2019-06-26T07:39:13.045Z,28.70
2019-06-26T07:42:00.997Z,28.80
2019-06-26T07:44:48.755Z,29.00
2019-06-26T07:47:43.073Z,29.20
2019-06-26T07:50:25.197Z,29.40
2019-06-26T07:53:13.151Z,29.50
2019-06-26T07:56:00.920Z,29.60
2019-06-26T07:58:48.267Z,29.80
2019-06-26T08:01:35.984Z,29.90
2019-06-26T08:04:23.392Z,30.10
2019-06-26T08:07:11.236Z,30.10
2019-06-26T08:09:58.690Z,30.20
2019-06-26T08:12:46.234Z,30.30
2019-06-26T08:15:34.094Z,30.50
2019-06-26T08:18:21.642Z,30.60
2019-06-26T08:21:12.457Z,30.70
2019-06-26T08:23:58.653Z,30.80
2019-06-26T08:26:47.857Z,30.90
2019-06-26T08:29:35.321Z,30.80
2019-06-26T08:32:25.913Z,31.00
2019-06-26T08:35:12.451Z,31.20
2019-06-26T08:38:10.212Z,31.30
2019-06-26T08:40:49.534Z,31.50
2019-06-26T08:43:37.352Z,31.50
2019-06-26T08:46:25.031Z,31.60
2019-06-26T08:49:25.109Z,31.80
2019-06-26T08:52:02.407Z,31.90
2019-06-26T08:54:50.045Z,32.00
2019-06-26T08:57:37.919Z,32.20
2019-06-26T09:00:25.629Z,32.30
2019-06-26T09:03:13.362Z,32.40
2019-06-26T09:06:01.050Z,32.60
2019-06-26T09:08:48.419Z,32.40
2019-06-26T09:11:36.354Z,32.70
2019-06-26T09:14:24.095Z,32.60
2019-06-26T09:17:11.821Z,32.60
2019-06-26T09:19:59.525Z,32.80
2019-06-26T09:22:47.583Z,32.90
2019-06-26T09:25:35.790Z,33.10
2019-06-26T09:28:23.456Z,33.30
2019-06-26T09:31:11.075Z,33.60
2019-06-26T09:33:59.193Z,33.70
2019-06-26T09:36:47.116Z,33.00
2019-06-26T09:39:34.878Z,33.10
2019-06-26T09:42:22.663Z,33.40
2019-06-26T09:45:10.444Z,34.30
2019-06-26T09:47:58.739Z,35.30
2019-06-26T09:50:46.268Z,36.10
2019-06-26T09:53:46.632Z,37.00
2019-06-26T09:56:23.207Z,37.00
2019-06-26T09:59:10.797Z,37.50
2019-06-26T10:01:58.553Z,37.90
2019-06-26T10:04:46.267Z,38.40
2019-06-26T10:07:33.824Z,37.80
2019-06-26T10:10:21.522Z,37.60
2019-06-26T10:13:08.901Z,36.50
2019-06-26T10:16:00.163Z,37.90
2019-06-26T10:18:45.664Z,38.60
2019-06-26T10:21:33.733Z,39.30
2019-06-26T10:24:21.188Z,39.30
2019-06-26T10:27:08.703Z,38.80
2019-06-26T10:29:56.481Z,39.20
2019-06-26T10:32:43.907Z,39.70
2019-06-26T10:35:31.368Z,39.20
2019-06-26T10:38:19.054Z,39.80
2019-06-26T10:41:06.884Z,40.20
2019-06-26T10:43:54.286Z,40.60
2019-06-26T10:46:41.965Z,41.30
2019-06-26T10:49:29.851Z,40.80
2019-06-26T10:52:17.480Z,41.60
2019-06-26T10:55:07.326Z,41.90
2019-06-26T10:57:54.796Z,41.60
2019-06-26T11:00:42.705Z,41.80
2019-06-26T11:03:30.796Z,41.70
2019-06-26T11:06:18.531Z,41.60
2019-06-26T11:09:08.200Z,41.80
2019-06-26T11:11:55.745Z,41.60
2019-06-26T11:14:43.372Z,41.50
2019-06-26T11:17:30.694Z,41.60
2019-06-26T11:20:18.971Z,41.10
2019-06-26T11:23:06.632Z,41.60
2019-06-26T11:25:54.761Z,42.30
2019-06-26T11:28:41.853Z,42.30
2019-06-26T11:31:29.578Z,42.00
2019-06-26T11:34:17.391Z,42.20
2019-06-26T11:37:05.225Z,42.90
2019-06-26T11:39:52.969Z,43.20
2019-06-26T11:42:40.700Z,43.30
2019-06-26T11:45:28.546Z,43.40
2019-06-26T11:48:16.261Z,42.60
2019-06-26T11:51:04.034Z,42.90
2019-06-26T11:53:51.750Z,43.60
2019-06-26T11:56:39.541Z,43.40
2019-06-26T11:59:27.357Z,43.10
2019-06-26T12:02:15.000Z,43.00
2019-06-26T12:05:02.855Z,43.10
2019-06-26T12:07:50.529Z,43.60
2019-06-26T12:10:38.113Z,44.00
2019-06-26T12:13:26.258Z,44.50
2019-06-26T12:16:13.729Z,44.60
2019-06-26T12:19:01.897Z,44.30
2019-06-26T12:21:49.520Z,43.90
2019-06-26T12:24:36.974Z,44.30
2019-06-26T12:27:24.650Z,44.90
2019-06-26T12:30:15.823Z,44.70
2019-06-26T12:33:03.886Z,44.60
2019-06-26T12:35:51.508Z,43.40
2019-06-26T12:38:39.245Z,43.80
2019-06-26T12:41:26.838Z,43.70
2019-06-26T12:44:14.592Z,44.70
2019-06-26T12:47:02.166Z,44.00
2019-06-26T12:49:50.089Z,44.60
2019-06-26T12:52:38.163Z,45.40
2019-06-26T12:55:26.011Z,44.60
2019-06-26T12:58:19.232Z,44.10
2019-06-26T13:01:02.676Z,44.50
2019-06-26T13:03:50.457Z,44.90
2019-06-26T13:06:38.335Z,45.40
2019-06-26T13:09:25.803Z,45.10
2019-06-26T13:12:13.394Z,44.40
2019-06-26T13:15:01.118Z,44.10
2019-06-26T13:17:48.691Z,44.50
2019-06-26T13:20:51.525Z,44.70
2019-06-26T13:23:25.556Z,44.90
2019-06-26T13:26:13.418Z,44.90
2019-06-26T13:29:00.936Z,45.00
2019-06-26T13:31:48.454Z,45.60
2019-06-26T13:34:36.322Z,45.40
2019-06-26T13:37:24.102Z,45.50
2019-06-26T13:40:11.704Z,44.60
2019-06-26T13:42:59.562Z,44.60
2019-06-26T13:45:46.901Z,44.00
2019-06-26T13:48:34.777Z,44.30
2019-06-26T13:51:22.287Z,44.50
2019-06-26T13:54:09.716Z,44.30
2019-06-26T13:56:57.025Z,44.10
2019-06-26T13:59:44.829Z,43.20
2019-06-26T14:02:32.604Z,42.40
2019-06-26T14:05:20.824Z,42.60
2019-06-26T14:08:08.644Z,43.40
2019-06-26T14:10:56.103Z,43.80
2019-06-26T14:13:43.348Z,45.20
2019-06-26T14:16:30.483Z,45.90
2019-06-26T14:19:17.971Z,46.40
2019-06-26T14:22:05.772Z,46.50
2019-06-26T14:24:54.318Z,46.40
2019-06-26T14:27:42.340Z,46.50
2019-06-26T14:30:30.308Z,47.10
2019-06-26T14:33:18.237Z,47.00
2019-06-26T14:36:05.741Z,46.60
2019-06-26T14:38:53.291Z,46.60
2019-06-26T14:41:41.060Z,47.10
2019-06-26T14:44:28.548Z,47.40
2019-06-26T14:47:16.125Z,47.50
2019-06-26T14:50:06.782Z,46.90
2019-06-26T14:52:54.584Z,46.90
2019-06-26T14:55:42.013Z,47.10
2019-06-26T14:58:29.545Z,46.80
2019-06-26T15:01:17.351Z,46.70
2019-06-26T15:04:04.961Z,47.00
2019-06-26T15:06:53.284Z,46.60
2019-06-26T15:09:40.859Z,46.70
2019-06-26T15:12:28.872Z,46.40
2019-06-26T15:15:18.184Z,46.60
2019-06-26T15:18:05.622Z,46.60
2019-06-26T15:20:53.568Z,46.20
2019-06-26T15:23:41.090Z,45.80
2019-06-26T15:26:28.949Z,45.80
2019-06-26T15:29:16.434Z,45.20
2019-06-26T15:32:04.576Z,45.30
2019-06-26T15:34:52.573Z,44.90
2019-06-26T15:37:40.390Z,44.90
2019-06-26T15:40:28.270Z,44.50
2019-06-26T15:43:15.870Z,44.80
2019-06-26T15:46:03.624Z,44.50
2019-06-26T15:48:51.501Z,43.90
2019-06-26T15:51:39.264Z,44.20
2019-06-26T15:54:26.875Z,44.50
2019-06-26T15:57:14.822Z,44.70
2019-06-26T16:00:02.938Z,45.00
2019-06-26T16:02:50.683Z,44.70
2019-06-26T16:05:38.185Z,44.40
2019-06-26T16:08:25.939Z,44.10
2019-06-26T16:11:13.474Z,43.80
2019-06-26T16:14:01.078Z,43.70
2019-06-26T16:16:50.561Z,43.40
2019-06-26T16:19:38.335Z,43.80
2019-06-26T16:22:32.405Z,43.30
2019-06-26T16:25:16.099Z,43.10
2019-06-26T16:28:05.665Z,43.00
2019-06-26T16:30:52.942Z,42.70
2019-06-26T16:33:40.782Z,42.30
2019-06-26T16:36:28.498Z,42.10
2019-06-26T16:39:15.907Z,41.60
2019-06-26T16:42:03.510Z,41.60
2019-06-26T16:44:51.438Z,41.30
2019-06-26T16:47:39.835Z,41.10
2019-06-26T16:50:27.678Z,40.70
2019-06-26T16:53:15.135Z,39.80
2019-06-26T16:56:02.946Z,39.50
2019-06-26T16:58:50.529Z,39.10
2019-06-26T17:01:38.130Z,38.80
2019-06-26T17:04:26.180Z,38.40
2019-06-26T17:07:13.933Z,38.10
2019-06-26T17:10:01.042Z,37.80
2019-06-26T17:12:48.407Z,37.80
2019-06-26T17:15:36.394Z,37.70
2019-06-26T17:18:24.216Z,37.50
2019-06-26T17:21:11.823Z,37.20
2019-06-26T17:23:59.512Z,36.90
2019-06-26T17:26:46.986Z,36.80
2019-06-26T17:29:34.590Z,36.70
2019-06-26T17:32:22.153Z,36.60
2019-06-26T17:35:10.955Z,36.50
2019-06-26T17:37:58.833Z,36.30
2019-06-26T17:40:46.355Z,36.30
2019-06-26T17:43:34.096Z,36.00
2019-06-26T17:46:22.120Z,35.80
2019-06-26T17:49:09.753Z,35.60
2019-06-26T17:51:57.386Z,35.30
2019-06-26T17:54:45.176Z,35.30
2019-06-26T17:57:33.081Z,35.20
2019-06-26T18:00:23.597Z,35.20
2019-06-26T18:03:11.176Z,35.00
2019-06-26T18:05:58.497Z,34.90
2019-06-26T18:08:46.423Z,34.80
2019-06-26T18:11:34.526Z,34.30
2019-06-26T18:14:22.382Z,34.00
2019-06-26T18:17:21.479Z,33.50
2019-06-26T18:19:59.405Z,33.50
2019-06-26T18:22:47.274Z,33.30
2019-06-26T18:25:34.972Z,33.40
2019-06-26T18:28:22.619Z,33.50
2019-06-26T18:31:10.240Z,33.40
2019-06-26T18:33:57.707Z,33.10
2019-06-26T18:36:45.269Z,32.90
2019-06-26T18:39:32.803Z,32.90
2019-06-26T18:42:20.820Z,32.70
2019-06-26T18:45:08.891Z,32.40
2019-06-26T18:47:56.644Z,32.20
2019-06-26T18:50:44.173Z,32.20
2019-06-26T18:53:32.130Z,32.00
2019-06-26T18:56:19.496Z,31.90
2019-06-26T18:59:07.159Z,31.70
2019-06-26T19:01:54.938Z,31.60
2019-06-26T19:04:42.534Z,31.50
2019-06-26T19:07:29.696Z,31.20
2019-06-26T19:10:17.409Z,31.10
2019-06-26T19:13:05.167Z,31.00
2019-06-26T19:15:53.032Z,31.00
2019-06-26T19:18:42.655Z,30.80
2019-06-26T19:21:29.892Z,30.80
2019-06-26T19:24:18.263Z,30.50
2019-06-26T19:27:07.710Z,30.40
2019-06-26T19:29:55.880Z,30.30
2019-06-26T19:32:43.912Z,30.10
2019-06-26T19:35:32.285Z,29.80
2019-06-26T19:38:20.221Z,29.70
2019-06-26T19:41:08.881Z,29.70
2019-06-26T19:43:56.508Z,29.50
2019-06-26T19:46:44.856Z,29.20
2019-06-26T19:49:32.798Z,29.10
2019-06-26T19:52:20.662Z,29.10
2019-06-26T19:55:08.778Z,29.10
2019-06-26T19:57:56.384Z,29.20
2019-06-26T20:00:44.532Z,29.30
2019-06-26T20:03:32.259Z,29.40
2019-06-26T20:06:20.048Z,29.10
2019-06-26T20:09:08.320Z,29.10
2019-06-26T20:11:56.269Z,29.10
2019-06-26T20:14:43.906Z,29.10
2019-06-26T20:17:31.652Z,28.90
2019-06-26T20:20:19.559Z,28.60
2019-06-26T20:23:07.844Z,28.40
2019-06-26T20:25:55.847Z,28.20
2019-06-26T20:28:43.705Z,28.10
2019-06-26T20:31:31.881Z,28.10
2019-06-26T20:34:20.022Z,28.10
2019-06-26T20:37:08.215Z,28.20
2019-06-26T20:39:56.421Z,28.10
2019-06-26T20:42:44.533Z,27.70
2019-06-26T20:45:32.373Z,27.70
2019-06-26T20:48:20.148Z,27.80
2019-06-26T20:51:08.256Z,27.60
2019-06-26T20:53:56.361Z,27.40
2019-06-26T20:56:43.874Z,27.50
2019-06-26T20:59:32.109Z,27.60
2019-06-26T21:02:20.387Z,27.40
2019-06-26T21:05:10.180Z,26.90
2019-06-26T21:07:58.078Z,26.80
2019-06-26T21:10:46.591Z,26.80
2019-06-26T21:13:34.667Z,26.50
2019-06-26T21:16:22.867Z,26.50
2019-06-26T21:19:10.676Z,26.50
2019-06-26T21:21:58.799Z,26.60
2019-06-26T21:24:46.945Z,26.80
2019-06-26T21:27:34.627Z,26.60
2019-06-26T21:30:22.621Z,26.60
2019-06-26T21:33:10.606Z,26.50
2019-06-26T21:35:58.638Z,26.30
2019-06-26T21:38:46.810Z,26.50
2019-06-26T21:41:34.831Z,26.40
2019-06-26T21:44:22.909Z,26.40
2019-06-26T21:47:10.595Z,26.40
2019-06-26T21:49:58.733Z,26.20
2019-06-26T21:52:46.987Z,26.10
2019-06-26T21:55:35.165Z,26.00
2019-06-26T21:58:23.366Z,26.10
2019-06-26T22:01:11.447Z,26.00
2019-06-26T22:03:59.768Z,26.00
2019-06-26T22:06:47.658Z,26.00
2019-06-26T22:09:35.742Z,26.10
2019-06-26T22:12:23.768Z,26.00
2019-06-26T22:15:11.681Z,25.90
2019-06-26T22:17:59.577Z,25.90
2019-06-26T22:20:47.763Z,25.80
2019-06-26T22:23:36.005Z,25.50
2019-06-26T22:26:23.659Z,25.50
2019-06-26T22:29:11.877Z,25.70
2019-06-26T22:31:59.960Z,25.60
2019-06-26T22:34:48.248Z,25.70
2019-06-26T22:37:36.419Z,25.80
2019-06-26T22:40:24.769Z,25.60
2019-06-26T22:43:13.026Z,25.30
2019-06-26T22:46:00.863Z,25.30
2019-06-26T22:48:49.248Z,25.20
2019-06-26T22:51:37.136Z,25.30
2019-06-26T22:54:25.100Z,25.20
2019-06-26T22:57:12.886Z,25.20
2019-06-26T23:00:01.076Z,25.30
2019-06-26T23:02:48.662Z,25.40
2019-06-26T23:05:37.154Z,25.50
2019-06-26T23:08:25.369Z,25.40
2019-06-26T23:11:13.130Z,25.10
2019-06-26T23:14:01.010Z,25.10
2019-06-26T23:16:49.173Z,25.10
2019-06-26T23:19:37.322Z,24.80
2019-06-26T23:22:25.394Z,24.60
2019-06-26T23:25:13.676Z,24.70
2019-06-26T23:28:01.546Z,24.90
2019-06-26T23:30:49.721Z,25.00
2019-06-26T23:33:37.854Z,24.70
2019-06-26T23:36:26.053Z,24.60
2019-06-26T23:39:13.959Z,24.60
2019-06-26T23:42:01.825Z,24.50
2019-06-26T23:44:49.424Z,24.50
2019-06-26T23:47:36.959Z,24.60
2019-06-26T23:50:25.078Z,24.50
2019-06-26T23:53:12.922Z,24.40
2019-06-26T23:56:00.683Z,24.40
2019-06-26T23:58:49.114Z,24.40
